Sparwood, Canada
Current Conditions -  °F | °C
As of 1:00 PM on Sunday 21 Dec 2014 (Local Time) from CWSW Reporting Station
Broken Clouds Broken Clouds  
Wind Chill:   Ceiling: 4500
Heat Index:   Visibility: 15mi
Dew Point:   Wind: 5mph
Humidity: 70%   Direction: 200°SSW
Pressure: 29.5"   Gusts: 22mph
Location:  49.72°N, 114.89°W
Report Text: CWSW 212000Z 20004G19KT 150V250 15SM BKN045 05/M00 A2950 RMK SC7 SLP014 DENSITY ALT 3900FT
Loading
Personal Weather Stations






























Interactive Weather Map New forecast layout! Learn more

10-Day Weather Forecast

Advertisements
Track Severe Weather on mobile